sensor_id;sensor_type;location;lat;lon;timestamp;P1;durP1;ratioP1;P2;durP2;ratioP2
22705;SDS011;11520;51.198;4.468;2023-02-01T00:02:24;17.98;;;6.68;;
22705;SDS011;11520;51.198;4.468;2023-02-01T00:04:50;21.67;;;7.10;;
22705;SDS011;11520;51.198;4.468;2023-02-01T00:07:16;27.15;;;7.40;;
22705;SDS011;11520;51.198;4.468;2023-02-01T00:09:43;26.65;;;6.72;;
22705;SDS011;11520;51.198;4.468;2023-02-01T00:12:10;28.80;;;6.47;;
22705;SDS011;11520;51.198;4.468;2023-02-01T00:14:38;18.48;;;6.05;;
22705;SDS011;11520;51.198;4.468;2023-02-01T00:17:08;25.08;;;6.97;;
22705;SDS011;11520;51.198;4.468;2023-02-01T00:19:36;23.40;;;7.20;;
22705;SDS011;11520;51.198;4.468;2023-02-01T00:22:02;20.80;;;5.88;;
22705;SDS011;11520;51.198;4.468;2023-02-01T00:24:27;26.98;;;6.22;;
22705;SDS011;11520;51.198;4.468;2023-02-01T00:26:53;29.48;;;7.25;;
22705;SDS011;11520;51.198;4.468;2023-02-01T00:29:22;24.13;;;5.60;;
22705;SDS011;11520;51.198;4.468;2023-02-01T00:31:49;25.55;;;6.65;;
22705;SDS011;11520;51.198;4.468;2023-02-01T00:34:18;25.15;;;6.15;;
22705;SDS011;11520;51.198;4.468;2023-02-01T00:36:44;22.92;;;6.65;;
22705;SDS011;11520;51.198;4.468;2023-02-01T00:39:11;26.77;;;7.68;;
22705;SDS011;11520;51.198;4.468;2023-02-01T00:41:37;26.70;;;7.22;;
22705;SDS011;11520;51.198;4.468;2023-02-01T00:44:03;22.48;;;6.82;;
22705;SDS011;11520;51.198;4.468;2023-02-01T00:46:29;26.98;;;6.70;;
22705;SDS011;11520;51.198;4.468;2023-02-01T00:48:56;28.25;;;7.15;;
22705;SDS011;11520;51.198;4.468;2023-02-01T00:51:23;22.65;;;6.70;;
22705;SDS011;11520;51.198;4.468;2023-02-01T00:53:51;23.33;;;6.55;;
22705;SDS011;11520;51.198;4.468;2023-02-01T00:56:19;25.33;;;7.80;;
22705;SDS011;11520;51.198;4.468;2023-02-01T00:58:47;19.98;;;7.13;;
22705;SDS011;11520;51.198;4.468;2023-02-01T01:01:17;25.73;;;6.32;;
22705;SDS011;11520;51.198;4.468;2023-02-01T01:03:44;30.85;;;7.03;;
22705;SDS011;11520;51.198;4.468;2023-02-01T01:06:17;30.08;;;7.25;;
22705;SDS011;11520;51.198;4.468;2023-02-01T01:08:45;23.15;;;6.45;;
22705;SDS011;11520;51.198;4.468;2023-02-01T01:11:13;24.05;;;6.88;;
22705;SDS011;11520;51.198;4.468;2023-02-01T01:13:47;24.13;;;6.45;;
22705;SDS011;11520;51.198;4.468;2023-02-01T01:16:16;31.30;;;7.43;;
22705;SDS011;11520;51.198;4.468;2023-02-01T01:18:43;26.63;;;7.32;;
22705;SDS011;11520;51.198;4.468;2023-02-01T01:21:09;22.65;;;6.15;;
22705;SDS011;11520;51.198;4.468;2023-02-01T01:23:38;24.70;;;6.60;;
22705;SDS011;11520;51.198;4.468;2023-02-01T01:26:09;21.02;;;5.57;;
22705;SDS011;11520;51.198;4.468;2023-02-01T01:28:40;23.70;;;5.97;;
22705;SDS011;11520;51.198;4.468;2023-02-01T01:31:10;27.48;;;6.07;;
22705;SDS011;11520;51.198;4.468;2023-02-01T01:36:15;17.48;;;5.93;;
22705;SDS011;11520;51.198;4.468;2023-02-01T01:38:41;26.90;;;5.20;;
22705;SDS011;11520;51.198;4.468;2023-02-01T01:41:12;22.42;;;5.75;;
22705;SDS011;11520;51.198;4.468;2023-02-01T01:43:47;23.98;;;5.72;;
22705;SDS011;11520;51.198;4.468;2023-02-01T01:46:17;24.02;;;4.85;;
22705;SDS011;11520;51.198;4.468;2023-02-01T01:48:45;22.45;;;4.78;;
22705;SDS011;11520;51.198;4.468;2023-02-01T01:51:15;19.65;;;4.93;;
22705;SDS011;11520;51.198;4.468;2023-02-01T01:53:45;27.98;;;5.72;;
22705;SDS011;11520;51.198;4.468;2023-02-01T01:56:15;21.00;;;4.80;;
22705;SDS011;11520;51.198;4.468;2023-02-01T01:58:40;17.10;;;4.75;;
22705;SDS011;11520;51.198;4.468;2023-02-01T02:01:07;19.38;;;4.85;;
22705;SDS011;11520;51.198;4.468;2023-02-01T02:03:35;26.50;;;5.40;;
22705;SDS011;11520;51.198;4.468;2023-02-01T02:06:09;19.13;;;5.63;;
22705;SDS011;11520;51.198;4.468;2023-02-01T02:08:43;15.93;;;4.63;;
22705;SDS011;11520;51.198;4.468;2023-02-01T02:11:10;19.30;;;4.10;;
22705;SDS011;11520;51.198;4.468;2023-02-01T02:13:43;17.42;;;3.53;;
22705;SDS011;11520;51.198;4.468;2023-02-01T02:16:24;21.17;;;3.83;;
22705;SDS011;11520;51.198;4.468;2023-02-01T02:26:56;20.17;;;4.32;;
22705;SDS011;11520;51.198;4.468;2023-02-01T02:29:55;16.10;;;3.72;;
22705;SDS011;11520;51.198;4.468;2023-02-01T02:33:00;22.38;;;3.65;;
22705;SDS011;11520;51.198;4.468;2023-02-01T02:36:05;21.73;;;3.85;;
22705;SDS011;11520;51.198;4.468;2023-02-01T02:39:05;23.67;;;4.65;;
22705;SDS011;11520;51.198;4.468;2023-02-01T02:41:47;22.20;;;4.18;;
22705;SDS011;11520;51.198;4.468;2023-02-01T02:44:41;16.65;;;3.60;;
22705;SDS011;11520;51.198;4.468;2023-02-01T02:47:36;24.20;;;4.22;;
22705;SDS011;11520;51.198;4.468;2023-02-01T02:50:29;25.58;;;4.05;;
22705;SDS011;11520;51.198;4.468;2023-02-01T02:53:21;17.98;;;4.03;;
22705;SDS011;11520;51.198;4.468;2023-02-01T02:56:18;22.38;;;4.20;;
22705;SDS011;11520;51.198;4.468;2023-02-01T02:59:05;26.33;;;4.25;;
22705;SDS011;11520;51.198;4.468;2023-02-01T03:01:53;27.60;;;4.30;;
22705;SDS011;11520;51.198;4.468;2023-02-01T03:04:38;20.50;;;6.20;;
22705;SDS011;11520;51.198;4.468;2023-02-01T03:07:13;25.23;;;4.05;;
22705;SDS011;11520;51.198;4.468;2023-02-01T03:12:53;30.67;;;5.65;;
22705;SDS011;11520;51.198;4.468;2023-02-01T03:15:46;28.85;;;5.70;;
22705;SDS011;11520;51.198;4.468;2023-02-01T03:18:38;23.05;;;5.45;;
22705;SDS011;11520;51.198;4.468;2023-02-01T03:21:16;25.90;;;5.65;;
22705;SDS011;11520;51.198;4.468;2023-02-01T03:24:07;25.73;;;5.25;;
22705;SDS011;11520;51.198;4.468;2023-02-01T03:26:47;22.23;;;5.25;;
22705;SDS011;11520;51.198;4.468;2023-02-01T03:29:21;18.10;;;4.00;;
22705;SDS011;11520;51.198;4.468;2023-02-01T03:31:52;18.95;;;4.03;;
22705;SDS011;11520;51.198;4.468;2023-02-01T03:34:18;21.35;;;4.22;;
22705;SDS011;11520;51.198;4.468;2023-02-01T03:36:50;20.58;;;5.85;;
22705;SDS011;11520;51.198;4.468;2023-02-01T03:39:24;26.20;;;4.78;;
22705;SDS011;11520;51.198;4.468;2023-02-01T03:41:58;15.10;;;3.83;;
22705;SDS011;11520;51.198;4.468;2023-02-01T03:44:38;27.42;;;5.15;;
22705;SDS011;11520;51.198;4.468;2023-02-01T03:47:14;17.45;;;4.32;;
22705;SDS011;11520;51.198;4.468;2023-02-01T03:49:55;18.08;;;3.63;;
22705;SDS011;11520;51.198;4.468;2023-02-01T03:52:31;20.80;;;4.53;;
22705;SDS011;11520;51.198;4.468;2023-02-01T03:55:18;19.92;;;3.70;;
22705;SDS011;11520;51.198;4.468;2023-02-01T03:58:00;21.35;;;3.95;;
22705;SDS011;11520;51.198;4.468;2023-02-01T04:00:31;26.02;;;5.28;;
22705;SDS011;11520;51.198;4.468;2023-02-01T04:02:57;18.52;;;4.40;;
22705;SDS011;11520;51.198;4.468;2023-02-01T04:05:23;16.10;;;3.88;;
22705;SDS011;11520;51.198;4.468;2023-02-01T04:07:49;23.92;;;4.43;;
22705;SDS011;11520;51.198;4.468;2023-02-01T04:10:16;26.95;;;5.32;;
22705;SDS011;11520;51.198;4.468;2023-02-01T04:12:42;29.35;;;4.80;;
22705;SDS011;11520;51.198;4.468;2023-02-01T04:15:10;29.08;;;5.35;;
22705;SDS011;11520;51.198;4.468;2023-02-01T04:17:36;23.20;;;4.93;;
22705;SDS011;11520;51.198;4.468;2023-02-01T04:20:02;25.27;;;4.63;;
22705;SDS011;11520;51.198;4.468;2023-02-01T04:22:29;25.13;;;4.85;;
22705;SDS011;11520;51.198;4.468;2023-02-01T04:24:56;26.08;;;4.25;;
22705;SDS011;11520;51.198;4.468;2023-02-01T04:27:24;19.20;;;4.25;;
22705;SDS011;11520;51.198;4.468;2023-02-01T04:29:51;20.95;;;5.05;;
22705;SDS011;11520;51.198;4.468;2023-02-01T04:32:19;24.70;;;4.57;;
22705;SDS011;11520;51.198;4.468;2023-02-01T04:34:45;18.58;;;3.88;;
22705;SDS011;11520;51.198;4.468;2023-02-01T04:37:11;21.60;;;5.30;;
22705;SDS011;11520;51.198;4.468;2023-02-01T04:39:36;28.83;;;4.85;;
22705;SDS011;11520;51.198;4.468;2023-02-01T04:42:03;19.33;;;4.72;;
22705;SDS011;11520;51.198;4.468;2023-02-01T04:44:30;24.33;;;4.93;;
22705;SDS011;11520;51.198;4.468;2023-02-01T04:46:56;17.55;;;4.15;;
22705;SDS011;11520;51.198;4.468;2023-02-01T04:49:22;30.83;;;5.18;;
22705;SDS011;11520;51.198;4.468;2023-02-01T04:51:50;25.27;;;5.30;;
22705;SDS011;11520;51.198;4.468;2023-02-01T04:54:16;20.25;;;4.22;;
22705;SDS011;11520;51.198;4.468;2023-02-01T04:56:43;24.63;;;4.80;;
22705;SDS011;11520;51.198;4.468;2023-02-01T04:59:18;24.40;;;5.35;;
22705;SDS011;11520;51.198;4.468;2023-02-01T05:01:44;23.23;;;5.40;;
22705;SDS011;11520;51.198;4.468;2023-02-01T05:04:09;25.92;;;5.00;;
22705;SDS011;11520;51.198;4.468;2023-02-01T05:06:35;26.83;;;6.22;;
22705;SDS011;11520;51.198;4.468;2023-02-01T05:09:03;29.83;;;5.95;;
22705;SDS011;11520;51.198;4.468;2023-02-01T05:11:29;24.67;;;6.22;;
22705;SDS011;11520;51.198;4.468;2023-02-01T05:14:14;24.45;;;4.93;;
22705;SDS011;11520;51.198;4.468;2023-02-01T05:16:41;22.75;;;4.28;;
22705;SDS011;11520;51.198;4.468;2023-02-01T05:21:36;23.27;;;4.60;;
22705;SDS011;11520;51.198;4.468;2023-02-01T05:24:04;27.98;;;5.45;;
22705;SDS011;11520;51.198;4.468;2023-02-01T05:26:38;20.17;;;4.10;;
22705;SDS011;11520;51.198;4.468;2023-02-01T05:29:09;33.20;;;5.93;;
22705;SDS011;11520;51.198;4.468;2023-02-01T05:31:40;22.00;;;4.50;;
22705;SDS011;11520;51.198;4.468;2023-02-01T05:34:06;27.73;;;4.10;;
22705;SDS011;11520;51.198;4.468;2023-02-01T05:39:19;21.08;;;4.70;;
22705;SDS011;11520;51.198;4.468;2023-02-01T05:44:13;23.02;;;4.40;;
22705;SDS011;11520;51.198;4.468;2023-02-01T05:46:39;28.63;;;5.90;;
22705;SDS011;11520;51.198;4.468;2023-02-01T05:49:04;25.08;;;5.53;;
22705;SDS011;11520;51.198;4.468;2023-02-01T05:51:32;25.27;;;5.47;;
22705;SDS011;11520;51.198;4.468;2023-02-01T05:54:00;26.15;;;5.50;;
22705;SDS011;11520;51.198;4.468;2023-02-01T05:56:29;25.42;;;4.88;;
22705;SDS011;11520;51.198;4.468;2023-02-01T05:58:55;23.35;;;4.43;;
22705;SDS011;11520;51.198;4.468;2023-02-01T06:01:21;29.92;;;6.80;;
22705;SDS011;11520;51.198;4.468;2023-02-01T06:07:02;27.98;;;5.43;;
22705;SDS011;11520;51.198;4.468;2023-02-01T06:09:32;26.17;;;4.90;;
22705;SDS011;11520;51.198;4.468;2023-02-01T06:12:08;19.65;;;4.00;;
22705;SDS011;11520;51.198;4.468;2023-02-01T06:14:34;25.52;;;4.93;;
22705;SDS011;11520;51.198;4.468;2023-02-01T06:17:00;21.58;;;4.15;;
22705;SDS011;11520;51.198;4.468;2023-02-01T06:19:25;26.30;;;4.43;;
22705;SDS011;11520;51.198;4.468;2023-02-01T06:21:58;33.35;;;5.13;;
22705;SDS011;11520;51.198;4.468;2023-02-01T06:24:24;21.25;;;4.18;;
22705;SDS011;11520;51.198;4.468;2023-02-01T06:26:50;22.60;;;4.30;;
22705;SDS011;11520;51.198;4.468;2023-02-01T06:29:15;24.15;;;4.22;;
22705;SDS011;11520;51.198;4.468;2023-02-01T06:31:41;25.20;;;4.32;;
22705;SDS011;11520;51.198;4.468;2023-02-01T06:34:07;22.52;;;4.93;;
22705;SDS011;11520;51.198;4.468;2023-02-01T06:36:35;23.13;;;5.25;;
22705;SDS011;11520;51.198;4.468;2023-02-01T06:39:03;23.55;;;4.25;;
22705;SDS011;11520;51.198;4.468;2023-02-01T06:41:29;21.13;;;4.18;;
22705;SDS011;11520;51.198;4.468;2023-02-01T06:43:55;20.20;;;4.85;;
22705;SDS011;11520;51.198;4.468;2023-02-01T06:46:21;24.67;;;4.75;;
22705;SDS011;11520;51.198;4.468;2023-02-01T06:48:46;22.25;;;5.22;;
22705;SDS011;11520;51.198;4.468;2023-02-01T06:51:25;29.48;;;5.40;;
22705;SDS011;11520;51.198;4.468;2023-02-01T06:53:52;21.10;;;4.47;;
22705;SDS011;11520;51.198;4.468;2023-02-01T06:56:18;22.20;;;4.40;;
22705;SDS011;11520;51.198;4.468;2023-02-01T06:58:44;22.27;;;4.45;;
22705;SDS011;11520;51.198;4.468;2023-02-01T07:01:10;28.33;;;5.28;;
22705;SDS011;11520;51.198;4.468;2023-02-01T07:03:36;24.40;;;4.80;;
22705;SDS011;11520;51.198;4.468;2023-02-01T07:06:02;32.78;;;5.05;;
22705;SDS011;11520;51.198;4.468;2023-02-01T07:08:30;19.42;;;4.30;;
22705;SDS011;11520;51.198;4.468;2023-02-01T07:11:01;23.02;;;4.18;;
22705;SDS011;11520;51.198;4.468;2023-02-01T07:13:27;22.63;;;4.70;;
22705;SDS011;11520;51.198;4.468;2023-02-01T07:15:53;27.42;;;4.75;;
22705;SDS011;11520;51.198;4.468;2023-02-01T07:18:23;22.13;;;4.53;;
22705;SDS011;11520;51.198;4.468;2023-02-01T07:20:49;25.92;;;4.55;;
22705;SDS011;11520;51.198;4.468;2023-02-01T07:23:18;26.10;;;5.20;;
22705;SDS011;11520;51.198;4.468;2023-02-01T07:25:45;26.75;;;5.32;;
22705;SDS011;11520;51.198;4.468;2023-02-01T07:28:11;22.63;;;4.43;;
22705;SDS011;11520;51.198;4.468;2023-02-01T07:30:37;21.02;;;4.78;;
22705;SDS011;11520;51.198;4.468;2023-02-01T07:33:03;21.13;;;4.95;;
22705;SDS011;11520;51.198;4.468;2023-02-01T07:35:28;25.60;;;4.95;;
22705;SDS011;11520;51.198;4.468;2023-02-01T07:37:56;24.67;;;5.10;;
22705;SDS011;11520;51.198;4.468;2023-02-01T07:40:23;21.80;;;4.82;;
22705;SDS011;11520;51.198;4.468;2023-02-01T07:43:05;20.25;;;4.70;;
22705;SDS011;11520;51.198;4.468;2023-02-01T07:45:36;22.15;;;5.32;;
22705;SDS011;11520;51.198;4.468;2023-02-01T07:48:07;26.17;;;4.93;;
22705;SDS011;11520;51.198;4.468;2023-02-01T07:50:34;22.63;;;4.60;;
22705;SDS011;11520;51.198;4.468;2023-02-01T07:53:00;18.23;;;4.25;;
22705;SDS011;11520;51.198;4.468;2023-02-01T07:55:30;21.73;;;4.32;;
22705;SDS011;11520;51.198;4.468;2023-02-01T07:57:56;21.40;;;4.65;;
22705;SDS011;11520;51.198;4.468;2023-02-01T08:00:24;16.80;;;4.72;;
22705;SDS011;11520;51.198;4.468;2023-02-01T08:03:09;29.73;;;5.43;;
22705;SDS011;11520;51.198;4.468;2023-02-01T08:05:37;26.27;;;5.40;;
22705;SDS011;11520;51.198;4.468;2023-02-01T08:08:03;18.27;;;4.43;;
22705;SDS011;11520;51.198;4.468;2023-02-01T08:10:29;22.08;;;4.95;;
22705;SDS011;11520;51.198;4.468;2023-02-01T08:12:59;21.67;;;4.75;;
22705;SDS011;11520;51.198;4.468;2023-02-01T08:15:36;25.88;;;5.70;;
22705;SDS011;11520;51.198;4.468;2023-02-01T08:18:05;22.02;;;5.18;;
22705;SDS011;11520;51.198;4.468;2023-02-01T08:20:30;26.40;;;4.95;;
22705;SDS011;11520;51.198;4.468;2023-02-01T08:22:56;20.92;;;5.63;;
22705;SDS011;11520;51.198;4.468;2023-02-01T08:25:23;26.92;;;5.28;;
22705;SDS011;11520;51.198;4.468;2023-02-01T08:27:49;19.15;;;5.43;;
22705;SDS011;11520;51.198;4.468;2023-02-01T08:30:17;23.33;;;4.38;;
22705;SDS011;11520;51.198;4.468;2023-02-01T08:32:42;21.85;;;5.38;;
22705;SDS011;11520;51.198;4.468;2023-02-01T08:35:08;26.65;;;5.35;;
22705;SDS011;11520;51.198;4.468;2023-02-01T08:37:34;26.23;;;4.72;;
22705;SDS011;11520;51.198;4.468;2023-02-01T08:40:00;21.60;;;4.80;;
22705;SDS011;11520;51.198;4.468;2023-02-01T08:42:27;28.38;;;5.43;;
22705;SDS011;11520;51.198;4.468;2023-02-01T08:45:14;26.83;;;6.03;;
22705;SDS011;11520;51.198;4.468;2023-02-01T08:47:40;16.63;;;4.78;;
22705;SDS011;11520;51.198;4.468;2023-02-01T08:50:08;25.63;;;5.15;;
22705;SDS011;11520;51.198;4.468;2023-02-01T08:52:34;25.13;;;5.57;;
22705;SDS011;11520;51.198;4.468;2023-02-01T08:55:01;24.55;;;6.45;;
22705;SDS011;11520;51.198;4.468;2023-02-01T08:57:27;18.40;;;4.53;;
22705;SDS011;11520;51.198;4.468;2023-02-01T08:59:54;29.88;;;5.68;;
22705;SDS011;11520;51.198;4.468;2023-02-01T09:02:19;35.13;;;5.82;;
22705;SDS011;11520;51.198;4.468;2023-02-01T09:04:45;20.50;;;4.78;;
22705;SDS011;11520;51.198;4.468;2023-02-01T09:07:11;22.33;;;5.05;;
22705;SDS011;11520;51.198;4.468;2023-02-01T09:09:38;21.90;;;4.75;;
22705;SDS011;11520;51.198;4.468;2023-02-01T09:12:07;18.98;;;5.28;;
22705;SDS011;11520;51.198;4.468;2023-02-01T09:14:32;24.75;;;5.95;;
22705;SDS011;11520;51.198;4.468;2023-02-01T09:16:58;26.48;;;5.22;;
22705;SDS011;11520;51.198;4.468;2023-02-01T09:19:25;21.70;;;5.47;;
22705;SDS011;11520;51.198;4.468;2023-02-01T09:21:50;24.00;;;6.05;;
22705;SDS011;11520;51.198;4.468;2023-02-01T09:24:18;26.50;;;6.05;;
22705;SDS011;11520;51.198;4.468;2023-02-01T09:26:43;18.20;;;5.00;;
22705;SDS011;11520;51.198;4.468;2023-02-01T09:29:09;26.35;;;5.18;;
22705;SDS011;11520;51.198;4.468;2023-02-01T09:31:36;20.73;;;5.68;;
22705;SDS011;11520;51.198;4.468;2023-02-01T09:34:02;30.90;;;5.75;;
22705;SDS011;11520;51.198;4.468;2023-02-01T09:36:29;28.92;;;7.10;;
22705;SDS011;11520;51.198;4.468;2023-02-01T09:38:55;23.45;;;4.80;;
22705;SDS011;11520;51.198;4.468;2023-02-01T09:46:31;24.50;;;4.50;;
22705;SDS011;11520;51.198;4.468;2023-02-01T09:49:00;25.05;;;5.45;;
22705;SDS011;11520;51.198;4.468;2023-02-01T09:51:33;30.65;;;5.45;;
22705;SDS011;11520;51.198;4.468;2023-02-01T09:56:56;26.58;;;5.05;;
22705;SDS011;11520;51.198;4.468;2023-02-01T09:59:38;23.75;;;5.63;;
22705;SDS011;11520;51.198;4.468;2023-02-01T10:02:14;19.38;;;5.32;;
22705;SDS011;11520;51.198;4.468;2023-02-01T10:04:53;20.60;;;4.55;;
22705;SDS011;11520;51.198;4.468;2023-02-01T10:10:41;14.05;;;4.88;;
22705;SDS011;11520;51.198;4.468;2023-02-01T10:20:57;13.23;;;3.85;;
22705;SDS011;11520;51.198;4.468;2023-02-01T10:28:52;13.15;;;3.60;;
22705;SDS011;11520;51.198;4.468;2023-02-01T10:31:24;14.43;;;3.80;;
22705;SDS011;11520;51.198;4.468;2023-02-01T10:33:52;15.30;;;3.72;;
22705;SDS011;11520;51.198;4.468;2023-02-01T10:36:28;17.60;;;3.65;;
22705;SDS011;11520;51.198;4.468;2023-02-01T10:38:55;12.32;;;3.83;;
22705;SDS011;11520;51.198;4.468;2023-02-01T10:41:23;15.13;;;3.80;;
22705;SDS011;11520;51.198;4.468;2023-02-01T10:44:19;13.07;;;3.17;;
22705;SDS011;11520;51.198;4.468;2023-02-01T10:46:49;10.65;;;2.85;;
22705;SDS011;11520;51.198;4.468;2023-02-01T10:52:48;13.20;;;2.97;;
22705;SDS011;11520;51.198;4.468;2023-02-01T10:58:06;12.32;;;2.13;;
22705;SDS011;11520;51.198;4.468;2023-02-01T11:00:54;11.20;;;2.03;;
22705;SDS011;11520;51.198;4.468;2023-02-01T11:06:02;11.93;;;2.33;;
22705;SDS011;11520;51.198;4.468;2023-02-01T11:08:41;12.90;;;2.55;;
22705;SDS011;11520;51.198;4.468;2023-02-01T11:11:12;9.48;;;2.47;;
22705;SDS011;11520;51.198;4.468;2023-02-01T11:13:39;11.68;;;2.15;;
22705;SDS011;11520;51.198;4.468;2023-02-01T11:16:06;14.52;;;2.65;;
22705;SDS011;11520;51.198;4.468;2023-02-01T11:18:36;17.70;;;2.85;;
22705;SDS011;11520;51.198;4.468;2023-02-01T11:21:05;14.82;;;2.22;;
22705;SDS011;11520;51.198;4.468;2023-02-01T11:23:39;13.10;;;2.78;;
22705;SDS011;11520;51.198;4.468;2023-02-01T11:26:29;16.13;;;2.55;;
22705;SDS011;11520;51.198;4.468;2023-02-01T11:29:03;13.60;;;2.53;;
22705;SDS011;11520;51.198;4.468;2023-02-01T11:31:34;13.45;;;2.58;;
22705;SDS011;11520;51.198;4.468;2023-02-01T11:34:05;12.70;;;2.05;;
22705;SDS011;11520;51.198;4.468;2023-02-01T11:36:38;19.67;;;2.80;;
22705;SDS011;11520;51.198;4.468;2023-02-01T11:39:28;14.00;;;3.05;;
22705;SDS011;11520;51.198;4.468;2023-02-01T11:44:45;16.08;;;2.95;;
22705;SDS011;11520;51.198;4.468;2023-02-01T11:47:31;23.63;;;3.10;;
22705;SDS011;11520;51.198;4.468;2023-02-01T12:09:46;14.80;;;2.40;;
22705;SDS011;11520;51.198;4.468;2023-02-01T12:21:27;11.50;;;2.35;;
22705;SDS011;11520;51.198;4.468;2023-02-01T12:24:23;19.08;;;2.47;;
22705;SDS011;11520;51.198;4.468;2023-02-01T12:39:16;16.13;;;2.33;;
22705;SDS011;11520;51.198;4.468;2023-02-01T12:43:58;23.90;;;2.60;;
22705;SDS011;11520;51.198;4.468;2023-02-01T12:46:33;13.02;;;2.00;;
22705;SDS011;11520;51.198;4.468;2023-02-01T12:51:41;13.50;;;2.45;;
22705;SDS011;11520;51.198;4.468;2023-02-01T12:56:53;18.05;;;2.85;;
22705;SDS011;11520;51.198;4.468;2023-02-01T12:59:38;24.73;;;2.88;;
22705;SDS011;11520;51.198;4.468;2023-02-01T13:07:52;14.35;;;2.13;;
22705;SDS011;11520;51.198;4.468;2023-02-01T13:15:45;18.98;;;2.83;;
22705;SDS011;11520;51.198;4.468;2023-02-01T13:18:39;19.23;;;2.83;;
22705;SDS011;11520;51.198;4.468;2023-02-01T13:21:16;13.60;;;2.30;;
22705;SDS011;11520;51.198;4.468;2023-02-01T13:23:51;17.38;;;3.08;;
22705;SDS011;11520;51.198;4.468;2023-02-01T13:26:19;18.45;;;2.35;;
22705;SDS011;11520;51.198;4.468;2023-02-01T13:31:48;17.15;;;2.25;;
22705;SDS011;11520;51.198;4.468;2023-02-01T13:42:41;14.95;;;2.33;;
22705;SDS011;11520;51.198;4.468;2023-02-01T13:45:35;11.02;;;2.10;;
22705;SDS011;11520;51.198;4.468;2023-02-01T13:48:14;17.92;;;2.92;;
22705;SDS011;11520;51.198;4.468;2023-02-01T13:50:57;16.95;;;3.00;;
22705;SDS011;11520;51.198;4.468;2023-02-01T13:53:33;17.48;;;2.50;;
22705;SDS011;11520;51.198;4.468;2023-02-01T13:56:10;15.10;;;2.38;;
22705;SDS011;11520;51.198;4.468;2023-02-01T13:58:43;19.65;;;2.42;;
22705;SDS011;11520;51.198;4.468;2023-02-01T14:01:31;15.50;;;2.42;;
22705;SDS011;11520;51.198;4.468;2023-02-01T14:04:04;12.43;;;2.00;;
22705;SDS011;11520;51.198;4.468;2023-02-01T14:06:35;14.15;;;2.67;;
22705;SDS011;11520;51.198;4.468;2023-02-01T14:09:13;12.13;;;2.58;;
22705;SDS011;11520;51.198;4.468;2023-02-01T14:15:24;12.25;;;2.47;;
22705;SDS011;11520;51.198;4.468;2023-02-01T14:17:53;22.33;;;3.25;;
22705;SDS011;11520;51.198;4.468;2023-02-01T14:23:18;14.77;;;2.80;;
22705;SDS011;11520;51.198;4.468;2023-02-01T14:25:46;14.57;;;2.83;;
22705;SDS011;11520;51.198;4.468;2023-02-01T14:28:27;21.58;;;2.70;;
22705;SDS011;11520;51.198;4.468;2023-02-01T14:30:54;10.30;;;2.60;;
22705;SDS011;11520;51.198;4.468;2023-02-01T14:33:25;17.23;;;2.65;;
22705;SDS011;11520;51.198;4.468;2023-02-01T14:36:04;16.52;;;3.95;;
22705;SDS011;11520;51.198;4.468;2023-02-01T14:38:36;14.18;;;2.28;;
22705;SDS011;11520;51.198;4.468;2023-02-01T14:41:37;15.25;;;2.65;;
22705;SDS011;11520;51.198;4.468;2023-02-01T14:49:34;19.05;;;3.25;;
22705;SDS011;11520;51.198;4.468;2023-02-01T14:52:39;18.83;;;2.53;;
22705;SDS011;11520;51.198;4.468;2023-02-01T14:57:52;24.42;;;3.03;;
22705;SDS011;11520;51.198;4.468;2023-02-01T15:00:22;17.45;;;3.60;;
22705;SDS011;11520;51.198;4.468;2023-02-01T15:02:52;18.35;;;3.92;;
22705;SDS011;11520;51.198;4.468;2023-02-01T15:05:25;22.15;;;3.60;;
22705;SDS011;11520;51.198;4.468;2023-02-01T15:07:55;20.55;;;3.97;;
22705;SDS011;11520;51.198;4.468;2023-02-01T15:10:25;16.20;;;3.58;;
22705;SDS011;11520;51.198;4.468;2023-02-01T15:12:53;14.90;;;3.20;;
22705;SDS011;11520;51.198;4.468;2023-02-01T15:15:23;18.42;;;2.72;;
22705;SDS011;11520;51.198;4.468;2023-02-01T15:17:53;17.70;;;3.47;;
22705;SDS011;11520;51.198;4.468;2023-02-01T15:20:30;20.90;;;4.82;;
22705;SDS011;11520;51.198;4.468;2023-02-01T15:23:02;17.48;;;3.58;;
22705;SDS011;11520;51.198;4.468;2023-02-01T15:25:36;17.02;;;2.97;;
22705;SDS011;11520;51.198;4.468;2023-02-01T15:28:03;15.90;;;3.78;;
22705;SDS011;11520;51.198;4.468;2023-02-01T15:30:32;17.17;;;3.90;;
22705;SDS011;11520;51.198;4.468;2023-02-01T15:35:41;19.42;;;3.30;;
22705;SDS011;11520;51.198;4.468;2023-02-01T15:46:21;15.98;;;3.15;;
22705;SDS011;11520;51.198;4.468;2023-02-01T15:48:52;16.88;;;3.30;;
22705;SDS011;11520;51.198;4.468;2023-02-01T15:51:21;22.13;;;3.80;;
22705;SDS011;11520;51.198;4.468;2023-02-01T15:56:37;16.80;;;3.22;;
22705;SDS011;11520;51.198;4.468;2023-02-01T15:59:17;18.02;;;3.42;;
22705;SDS011;11520;51.198;4.468;2023-02-01T16:04:23;16.48;;;3.38;;
22705;SDS011;11520;51.198;4.468;2023-02-01T16:06:55;20.25;;;3.40;;
22705;SDS011;11520;51.198;4.468;2023-02-01T16:09:24;15.82;;;3.35;;
22705;SDS011;11520;51.198;4.468;2023-02-01T16:12:00;16.20;;;2.80;;
22705;SDS011;11520;51.198;4.468;2023-02-01T16:14:30;16.20;;;3.17;;
22705;SDS011;11520;51.198;4.468;2023-02-01T16:16:59;17.58;;;3.65;;
22705;SDS011;11520;51.198;4.468;2023-02-01T16:19:25;19.40;;;3.65;;
22705;SDS011;11520;51.198;4.468;2023-02-01T16:21:53;19.23;;;3.60;;
22705;SDS011;11520;51.198;4.468;2023-02-01T16:24:23;11.52;;;3.13;;
22705;SDS011;11520;51.198;4.468;2023-02-01T16:26:50;18.00;;;3.28;;
22705;SDS011;11520;51.198;4.468;2023-02-01T16:29:17;19.02;;;3.40;;
22705;SDS011;11520;51.198;4.468;2023-02-01T16:31:46;16.70;;;2.97;;
22705;SDS011;11520;51.198;4.468;2023-02-01T16:34:15;19.20;;;4.47;;
22705;SDS011;11520;51.198;4.468;2023-02-01T16:36:42;18.05;;;3.38;;
22705;SDS011;11520;51.198;4.468;2023-02-01T16:39:12;19.33;;;3.72;;
22705;SDS011;11520;51.198;4.468;2023-02-01T16:41:38;23.08;;;4.00;;
22705;SDS011;11520;51.198;4.468;2023-02-01T16:44:07;18.50;;;3.50;;
22705;SDS011;11520;51.198;4.468;2023-02-01T16:49:19;18.95;;;3.22;;
22705;SDS011;11520;51.198;4.468;2023-02-01T16:51:48;15.45;;;3.40;;
22705;SDS011;11520;51.198;4.468;2023-02-01T16:54:17;15.70;;;4.35;;
22705;SDS011;11520;51.198;4.468;2023-02-01T16:56:44;19.13;;;5.13;;
22705;SDS011;11520;51.198;4.468;2023-02-01T16:59:11;20.48;;;4.25;;
22705;SDS011;11520;51.198;4.468;2023-02-01T17:01:37;20.85;;;4.47;;
22705;SDS011;11520;51.198;4.468;2023-02-01T17:04:03;19.15;;;3.60;;
22705;SDS011;11520;51.198;4.468;2023-02-01T17:06:29;23.55;;;4.15;;
22705;SDS011;11520;51.198;4.468;2023-02-01T17:08:57;23.27;;;4.57;;
22705;SDS011;11520;51.198;4.468;2023-02-01T17:11:25;17.13;;;4.15;;
22705;SDS011;11520;51.198;4.468;2023-02-01T17:13:52;19.42;;;3.95;;
22705;SDS011;11520;51.198;4.468;2023-02-01T17:18:46;24.52;;;4.10;;
22705;SDS011;11520;51.198;4.468;2023-02-01T17:21:43;15.00;;;4.45;;
22705;SDS011;11520;51.198;4.468;2023-02-01T17:24:13;21.92;;;5.55;;
22705;SDS011;11520;51.198;4.468;2023-02-01T17:26:41;26.15;;;5.07;;
22705;SDS011;11520;51.198;4.468;2023-02-01T17:29:08;23.80;;;4.68;;
22705;SDS011;11520;51.198;4.468;2023-02-01T17:31:39;19.83;;;4.95;;
22705;SDS011;11520;51.198;4.468;2023-02-01T17:34:09;17.77;;;4.88;;
22705;SDS011;11520;51.198;4.468;2023-02-01T17:36:36;23.83;;;4.68;;
22705;SDS011;11520;51.198;4.468;2023-02-01T17:39:03;16.50;;;3.95;;
22705;SDS011;11520;51.198;4.468;2023-02-01T17:41:29;20.23;;;4.00;;
22705;SDS011;11520;51.198;4.468;2023-02-01T17:43:55;18.33;;;4.22;;
22705;SDS011;11520;51.198;4.468;2023-02-01T17:46:21;24.08;;;4.60;;